Time;durP1;ratioP1;P1;durP2;ratioP2;P2;SDS_P1;SDS_P2;PMS_P1;PMS_P2;Temp;Humidity;BMP_temperature;BMP_pressure;BME280_temperature;BME280_humidity;BME280_pressure;Samples;Min_cycle;Max_cycle;Signal;HPM_P1;HPM_P2
2021/10/13 00:00:11;;;;;;;58.27;2.70;;;6.90;69.70;;;;;;5091607;28;20479;-70
2021/10/13 00:02:39;;;;;;;59.00;2.80;;;6.90;69.80;;;;;;5091488;28;20991;-70
2021/10/13 00:05:07;;;;;;;58.60;2.77;;;7.00;70.20;;;;;;5091345;28;21027;-70
2021/10/13 00:07:34;;;;;;;58.50;2.78;;;7.00;70.70;;;;;;5091268;28;20448;-70
2021/10/13 00:10:01;;;;;;;58.33;2.83;;;7.00;70.90;;;;;;5091304;28;20229;-70
2021/10/13 00:12:32;;;;;;;58.37;2.73;;;7.00;71.10;;;;;;5091524;28;20495;-70
2021/10/13 00:14:59;;;;;;;59.00;3.10;;;7.00;71.50;;;;;;5091600;28;20451;-70
2021/10/13 00:17:25;;;;;;;58.40;2.90;;;7.00;71.80;;;;;;5091067;28;20453;-70
2021/10/13 00:19:52;;;;;;;58.33;2.80;;;7.00;72.10;;;;;;5091276;28;20261;-70
2021/10/13 00:22:19;;;;;;;59.60;3.23;;;7.00;72.20;;;;;;5091407;28;21005;-71
2021/10/13 00:24:46;;;;;;;58.20;2.70;;;7.00;72.60;;;;;;5091274;28;20754;-70
2021/10/13 00:27:13;;;;;;;58.30;2.80;;;7.10;73.10;;;;;;5091408;28;20452;-70
2021/10/13 00:29:41;;;;;;;58.33;2.70;;;7.10;73.40;;;;;;5094669;28;20546;-70
2021/10/13 00:32:08;;;;;;;58.53;2.90;;;7.10;74.00;;;;;;5095036;28;21006;-70
2021/10/13 00:34:36;;;;;;;58.70;3.10;;;7.20;74.40;;;;;;5094852;28;20975;-70
2021/10/13 00:37:03;;;;;;;58.33;2.73;;;7.20;74.90;;;;;;5094452;28;20453;-70
2021/10/13 00:39:30;;;;;;;58.17;2.70;;;7.20;75.00;;;;;;5095025;28;20483;-70
2021/10/13 00:41:57;;;;;;;58.27;2.63;;;7.20;75.00;;;;;;5095083;28;20491;-70
2021/10/13 00:44:24;;;;;;;58.40;2.50;;;7.20;75.30;;;;;;5094848;28;20825;-70
2021/10/13 00:46:52;;;;;;;58.50;3.10;;;7.10;75.30;;;;;;5094882;28;20542;-70
2021/10/13 00:49:19;;;;;;;58.33;2.73;;;7.10;75.40;;;;;;5094498;28;20463;-71
2021/10/13 00:51:46;;;;;;;58.37;2.73;;;7.00;75.40;;;;;;5094421;28;20534;-70
2021/10/13 00:54:13;;;;;;;58.50;2.90;;;7.00;75.50;;;;;;5094690;28;20543;-71
2021/10/13 00:56:40;;;;;;;58.47;3.10;;;6.90;75.40;;;;;;5094332;28;20450;-70
2021/10/13 00:59:07;;;;;;;58.17;2.70;;;6.90;75.40;;;;;;5094506;28;20492;-70
2021/10/13 01:01:41;;;;;;;58.43;2.80;;;6.90;75.60;;;;;;5094480;28;20938;-71
2021/10/13 01:04:24;;;;;;;58.25;2.85;;;6.90;75.60;;;;;;5094524;28;20936;-71
2021/10/13 01:07:00;;;;;;;58.40;2.80;;;6.90;75.90;;;;;;5094429;28;20288;-71
2021/10/13 01:09:30;;;;;;;58.30;3.20;;;6.90;76.10;;;;;;5094953;28;20689;-71
2021/10/13 01:12:13;;;;;;;58.23;2.80;;;6.90;76.80;;;;;;5094396;28;20534;-70
2021/10/13 01:14:46;;;;;;;58.07;2.70;;;7.00;77.10;;;;;;5094229;28;20597;-71
2021/10/13 01:17:21;;;;;;;58.47;2.80;;;7.00;77.40;;;;;;5094149;28;20451;-70
2021/10/13 01:20:00;;;;;;;58.17;2.80;;;7.00;77.40;;;;;;5094371;28;20582;-71
2021/10/13 01:22:49;;;;;;;58.38;2.50;;;7.00;77.50;;;;;;5094286;28;20539;-70
2021/10/13 01:25:29;;;;;;;58.27;2.80;;;7.00;77.70;;;;;;5093985;28;20227;-71
2021/10/13 01:28:00;;;;;;;58.70;2.90;;;7.10;78.20;;;;;;5094162;28;20455;-72
2021/10/13 01:30:34;;;;;;;58.37;2.90;;;7.10;78.40;;;;;;5094085;28;20203;-70
2021/10/13 01:33:07;;;;;;;58.17;2.73;;;7.10;78.50;;;;;;5093712;28;20599;-70
2021/10/13 01:35:39;;;;;;;58.28;2.83;;;7.10;78.60;;;;;;5093336;28;20453;-70
2021/10/13 01:38:08;;;;;;;58.20;2.63;;;7.10;78.40;;;;;;5093665;28;20247;-70
2021/10/13 01:40:38;;;;;;;58.60;3.10;;;7.10;78.40;;;;;;5093678;28;20539;-70
2021/10/13 01:43:07;;;;;;;58.37;3.00;;;7.10;78.40;;;;;;5091254;28;20887;-71
2021/10/13 01:45:34;;;;;;;58.73;3.70;;;7.10;78.40;;;;;;5072616;28;20940;-71
2021/10/13 01:48:02;;;;;;;58.20;2.70;;;7.10;78.50;;;;;;5073493;28;20492;-71
2021/10/13 01:50:30;;;;;;;58.38;2.80;;;7.00;78.50;;;;;;5073282;28;20945;-71
2021/10/13 01:52:58;;;;;;;58.47;3.10;;;7.00;78.40;;;;;;5073311;28;20231;-71
2021/10/13 01:55:27;;;;;;;58.37;2.60;;;7.00;78.30;;;;;;5072826;28;20455;-72
2021/10/13 01:57:58;;;;;;;58.20;2.50;;;6.90;78.10;;;;;;5072961;28;20456;-70
2021/10/13 02:00:27;;;;;;;58.30;2.70;;;6.90;78.20;;;;;;5073487;28;20555;-72
2021/10/13 02:02:55;;;;;;;58.70;3.72;;;6.90;78.10;;;;;;5073138;28;20480;-70
2021/10/13 02:05:23;;;;;;;59.28;3.10;;;6.90;78.20;;;;;;5072924;28;20206;-71
2021/10/13 02:07:51;;;;;;;58.23;2.70;;;6.90;78.20;;;;;;5072773;28;20730;-70
2021/10/13 02:10:21;;;;;;;58.55;3.30;;;6.90;78.40;;;;;;5072775;28;20547;-70
2021/10/13 02:12:49;;;;;;;59.58;4.95;;;6.90;78.50;;;;;;5073230;28;20229;-71
2021/10/13 02:15:16;;;;;;;58.45;2.88;;;6.90;78.60;;;;;;5072981;28;20216;-71
2021/10/13 02:17:47;;;;;;;58.50;3.03;;;6.90;78.60;;;;;;5072815;28;20202;-71
2021/10/13 02:20:15;;;;;;;58.38;2.95;;;6.90;78.50;;;;;;5072826;28;20893;-70
2021/10/13 02:22:47;;;;;;;58.27;2.73;;;6.80;78.60;;;;;;5072465;28;20230;-70
2021/10/13 02:25:14;;;;;;;58.70;3.10;;;6.80;78.70;;;;;;5072483;28;20981;-70
2021/10/13 02:27:46;;;;;;;58.25;2.75;;;6.80;78.90;;;;;;5072218;28;20460;-70
2021/10/13 02:30:13;;;;;;;58.78;2.97;;;6.90;79.20;;;;;;5072548;28;20232;-71
2021/10/13 02:32:41;;;;;;;58.60;2.88;;;6.90;79.40;;;;;;5072392;28;20226;-71
2021/10/13 02:35:10;;;;;;;58.55;2.72;;;6.90;79.60;;;;;;5072230;28;20210;-70
2021/10/13 02:37:38;;;;;;;58.37;2.80;;;7.00;80.00;;;;;;5072276;28;20293;-70
2021/10/13 02:40:06;;;;;;;58.23;2.70;;;7.00;80.10;;;;;;5072229;28;21056;-70
2021/10/13 02:42:35;;;;;;;58.27;2.80;;;7.00;80.30;;;;;;5072409;28;20540;-70
2021/10/13 02:45:02;;;;;;;58.17;2.77;;;7.10;81.00;;;;;;5072091;28;20541;-69
2021/10/13 02:47:34;;;;;;;58.17;2.80;;;7.10;80.80;;;;;;5072023;28;20535;-70
2021/10/13 02:50:06;;;;;;;58.47;2.90;;;7.10;81.20;;;;;;5071967;28;20223;-71
2021/10/13 02:52:43;;;;;;;58.33;2.70;;;7.10;81.40;;;;;;5071639;28;20201;-71
2021/10/13 02:55:14;;;;;;;58.27;2.80;;;7.10;81.40;;;;;;5072078;28;20445;-70
2021/10/13 02:57:44;;;;;;;58.38;2.70;;;7.10;81.40;;;;;;5071803;28;20966;-70
2021/10/13 03:00:13;;;;;;;58.55;2.90;;;7.10;81.50;;;;;;5072340;28;20341;-71
2021/10/13 03:02:47;;;;;;;58.38;2.80;;;7.10;81.70;;;;;;5072018;28;20214;-70
2021/10/13 03:05:16;;;;;;;58.38;2.55;;;7.00;81.60;;;;;;5072100;28;20203;-71
2021/10/13 03:07:46;;;;;;;58.43;2.57;;;7.00;81.60;;;;;;5071655;28;20206;-70
2021/10/13 03:10:14;;;;;;;58.80;2.93;;;7.00;81.90;;;;;;5071807;28;20465;-70
2021/10/13 03:12:44;;;;;;;58.30;2.60;;;7.10;82.00;;;;;;5071579;28;20832;-71
2021/10/13 03:15:12;;;;;;;58.28;2.60;;;7.00;82.40;;;;;;5071985;28;20467;-70
2021/10/13 03:17:41;;;;;;;58.07;2.50;;;7.00;82.70;;;;;;5071670;28;20205;-70
2021/10/13 03:20:09;;;;;;;58.03;2.67;;;7.00;82.70;;;;;;5071671;28;20509;-70
2021/10/13 03:22:39;;;;;;;58.20;2.40;;;7.00;82.70;;;;;;5071875;28;20828;-70
2021/10/13 03:25:08;;;;;;;58.17;2.47;;;7.00;82.80;;;;;;5071493;28;20457;-71
2021/10/13 03:27:35;;;;;;;58.13;2.60;;;7.00;82.90;;;;;;5071503;28;20448;-71
2021/10/13 03:30:02;;;;;;;58.17;2.70;;;7.00;83.00;;;;;;5072061;28;20471;-70
2021/10/13 03:32:29;;;;;;;58.30;3.17;;;7.00;83.10;;;;;;5071761;28;20304;-69
2021/10/13 03:34:56;;;;;;;58.23;2.83;;;7.00;83.20;;;;;;5071557;28;20578;-71
2021/10/13 03:37:22;;;;;;;58.27;2.47;;;7.10;83.40;;;;;;5071370;28;20536;-70
2021/10/13 03:39:50;;;;;;;58.42;2.67;;;7.10;83.60;;;;;;5071819;28;20472;-70
2021/10/13 03:42:18;;;;;;;58.47;2.78;;;7.10;83.70;;;;;;5071788;28;20206;-70
2021/10/13 03:44:45;;;;;;;58.70;2.95;;;7.10;83.60;;;;;;5071371;28;20293;-71
2021/10/13 03:47:12;;;;;;;58.25;2.63;;;7.10;84.30;;;;;;5071335;28;20212;-71
2021/10/13 03:49:39;;;;;;;59.00;3.00;;;7.20;84.00;;;;;;5071479;28;20322;-71
2021/10/13 03:52:06;;;;;;;58.25;2.42;;;7.20;84.00;;;;;;5071366;28;20506;-70
2021/10/13 03:54:33;;;;;;;58.27;2.70;;;7.20;84.10;;;;;;5071136;28;20605;-71
2021/10/13 03:57:00;;;;;;;58.10;2.63;;;7.10;84.10;;;;;;5071201;28;20544;-70
2021/10/13 03:59:28;;;;;;;58.00;2.70;;;7.10;84.10;;;;;;5071609;28;20547;-71
2021/10/13 04:01:55;;;;;;;58.40;2.75;;;7.10;84.00;;;;;;5072084;28;20450;-71
2021/10/13 04:04:22;;;;;;;58.30;2.60;;;7.10;83.80;;;;;;5075367;28;20285;-71
2021/10/13 04:06:49;;;;;;;58.75;2.85;;;7.10;84.30;;;;;;5074837;28;20213;-72
2021/10/13 04:09:15;;;;;;;58.37;2.50;;;7.10;84.20;;;;;;5075065;28;20330;-70
2021/10/13 04:11:42;;;;;;;58.90;2.70;;;7.10;84.10;;;;;;5075199;28;20512;-70
2021/10/13 04:14:09;;;;;;;58.23;2.60;;;7.10;84.20;;;;;;5075111;28;20498;-71
2021/10/13 04:16:37;;;;;;;58.50;2.88;;;7.10;84.10;;;;;;5074867;28;20448;-71
2021/10/13 04:19:04;;;;;;;58.20;2.60;;;7.10;84.30;;;;;;5074989;28;20314;-70
2021/10/13 04:21:31;;;;;;;58.08;2.70;;;7.10;84.30;;;;;;5074806;28;20541;-71
2021/10/13 04:23:58;;;;;;;59.05;3.00;;;7.10;84.80;;;;;;5074752;28;20309;-71
2021/10/13 04:26:25;;;;;;;58.35;2.63;;;7.10;84.50;;;;;;5074572;28;20298;-70
2021/10/13 04:28:52;;;;;;;58.50;3.10;;;7.10;84.60;;;;;;5074519;28;20228;-71
2021/10/13 04:31:18;;;;;;;58.35;2.63;;;7.00;84.40;;;;;;5074864;28;20256;-71
2021/10/13 04:33:47;;;;;;;58.17;2.70;;;7.00;84.30;;;;;;5074711;28;20312;-72
2021/10/13 04:36:13;;;;;;;58.30;2.50;;;7.00;84.30;;;;;;5074624;28;20830;-71
2021/10/13 04:38:40;;;;;;;58.30;2.78;;;6.90;84.10;;;;;;5074546;28;20810;-72
2021/10/13 04:41:07;;;;;;;59.05;3.45;;;6.90;84.10;;;;;;5074803;28;20241;-71
2021/10/13 04:43:34;;;;;;;58.47;2.75;;;7.00;84.40;;;;;;5074657;28;20253;-69
2021/10/13 04:46:01;;;;;;;58.03;2.70;;;7.00;84.50;;;;;;5074234;28;20289;-70
2021/10/13 04:48:28;;;;;;;58.28;2.70;;;7.00;84.60;;;;;;5074335;28;20555;-70
2021/10/13 04:50:56;;;;;;;58.80;2.90;;;7.10;85.00;;;;;;5074308;28;20234;-70
2021/10/13 04:53:23;;;;;;;58.17;2.53;;;7.10;85.30;;;;;;5074308;28;21000;-70
2021/10/13 04:55:50;;;;;;;58.45;2.70;;;7.10;85.00;;;;;;5074120;28;20542;-70
2021/10/13 04:58:17;;;;;;;58.33;2.67;;;7.10;85.00;;;;;;5074427;28;20336;-70
2021/10/13 05:00:44;;;;;;;60.65;3.40;;;7.10;85.00;;;;;;5074710;28;20206;-71
2021/10/13 05:03:11;;;;;;;58.28;2.58;;;7.00;84.90;;;;;;5074597;28;20232;-70
2021/10/13 05:05:38;;;;;;;58.17;2.57;;;7.00;85.00;;;;;;5073776;28;20300;-71
2021/10/13 05:08:06;;;;;;;58.17;2.93;;;7.00;85.20;;;;;;5074245;28;20557;-71
2021/10/13 05:10:35;;;;;;;58.38;2.63;;;7.00;85.20;;;;;;5074216;28;20452;-71
2021/10/13 05:13:02;;;;;;;58.17;2.97;;;7.00;85.00;;;;;;5074028;28;20591;-70
2021/10/13 05:15:29;;;;;;;58.28;2.70;;;7.00;85.20;;;;;;5073049;28;20889;-71
2021/10/13 05:17:56;;;;;;;58.17;2.77;;;7.00;85.10;;;;;;5073765;28;20298;-70
2021/10/13 05:20:22;;;;;;;58.20;2.65;;;7.00;85.10;;;;;;5074142;28;20885;-71
2021/10/13 05:22:49;;;;;;;58.20;2.77;;;7.00;85.00;;;;;;5073774;28;20295;-71
2021/10/13 05:25:17;;;;;;;58.78;3.35;;;7.00;84.90;;;;;;5073746;28;20641;-71
2021/10/13 05:27:44;;;;;;;58.38;2.55;;;7.00;84.90;;;;;;5073511;28;20244;-70
2021/10/13 05:30:11;;;;;;;58.90;2.90;;;7.00;84.80;;;;;;5073597;28;20265;-71
2021/10/13 05:32:38;;;;;;;61.20;3.65;;;6.90;84.50;;;;;;5073908;28;20206;-70
2021/10/13 05:35:06;;;;;;;58.35;3.00;;;6.90;84.40;;;;;;5073778;28;20227;-72
2021/10/13 05:37:33;;;;;;;58.30;2.85;;;6.90;84.20;;;;;;5073435;28;20213;-72
2021/10/13 05:40:00;;;;;;;58.35;2.90;;;6.90;84.20;;;;;;5073407;28;20257;-71
2021/10/13 05:42:28;;;;;;;58.30;2.70;;;6.90;83.70;;;;;;5073518;28;20246;-70
2021/10/13 05:44:55;;;;;;;58.17;2.60;;;6.90;83.70;;;;;;5073176;28;20210;-70
2021/10/13 05:47:22;;;;;;;58.40;2.80;;;6.90;83.70;;;;;;5073168;28;20252;-71
2021/10/13 05:49:49;;;;;;;58.20;2.50;;;6.90;83.80;;;;;;5074304;28;20721;-71
2021/10/13 05:52:17;;;;;;;58.30;2.65;;;7.00;84.10;;;;;;5073732;28;20242;-71
2021/10/13 05:54:43;;;;;;;58.28;2.70;;;7.00;84.00;;;;;;5072999;28;20431;-71
2021/10/13 05:57:10;;;;;;;58.30;2.70;;;6.90;83.90;;;;;;5072865;28;20675;-70
2021/10/13 05:59:40;;;;;;;58.33;2.72;;;6.90;84.00;;;;;;5072896;28;20230;-69
2021/10/13 06:02:07;;;;;;;58.22;2.65;;;7.00;84.20;;;;;;5073311;28;20205;-69
2021/10/13 06:04:34;;;;;;;58.28;3.10;;;7.00;84.30;;;;;;5073411;28;20292;-70
2021/10/13 06:07:01;;;;;;;58.30;2.63;;;7.00;84.30;;;;;;5073099;28;20622;-69
2021/10/13 06:09:28;;;;;;;58.17;2.70;;;7.10;84.70;;;;;;5072806;28;20317;-70
2021/10/13 06:11:55;;;;;;;58.25;2.80;;;7.10;84.90;;;;;;5072723;28;20244;-71
2021/10/13 06:14:22;;;;;;;58.28;2.70;;;7.10;85.00;;;;;;5072760;28;20262;-71
2021/10/13 06:16:50;;;;;;;58.28;2.72;;;7.20;85.20;;;;;;5072682;28;20295;-71
2021/10/13 06:19:17;;;;;;;58.30;2.78;;;7.20;85.40;;;;;;5072784;28;20241;-71
2021/10/13 06:21:44;;;;;;;61.80;3.43;;;7.20;85.40;;;;;;5072288;28;20646;-71
2021/10/13 06:24:11;;;;;;;58.40;2.70;;;7.20;85.50;;;;;;5071219;28;20456;-71
2021/10/13 06:26:38;;;;;;;59.83;3.42;;;7.30;86.00;;;;;;5069640;28;20296;-71
2021/10/13 06:29:06;;;;;;;58.08;2.70;;;7.30;85.80;;;;;;5071885;28;20231;-71
2021/10/13 06:31:33;;;;;;;58.10;2.70;;;7.40;86.10;;;;;;5071606;28;20322;-71
2021/10/13 06:34:01;;;;;;;58.30;2.77;;;7.40;86.30;;;;;;5072032;28;20916;-71
2021/10/13 06:36:28;;;;;;;58.03;2.60;;;7.50;86.60;;;;;;5071787;28;20473;-71
2021/10/13 06:38:55;;;;;;;58.17;2.90;;;7.50;86.70;;;;;;5071749;28;20908;-72
2021/10/13 06:41:25;;;;;;;58.23;2.73;;;7.50;86.90;;;;;;5072289;28;20448;-71
2021/10/13 06:43:52;;;;;;;58.15;2.70;;;7.50;86.90;;;;;;5072487;28;20496;-71
2021/10/13 06:46:18;;;;;;;58.60;3.80;;;7.50;99.90;;;;;;5072143;28;20651;-71
2021/10/13 06:48:45;;;;;;;58.03;2.63;;;7.50;87.20;;;;;;5072306;28;21000;-69
2021/10/13 06:51:14;;;;;;;58.23;2.70;;;7.60;87.30;;;;;;5072199;28;20445;-71
2021/10/13 06:53:42;;;;;;;58.10;2.80;;;7.60;87.70;;;;;;5071915;28;21048;-71
2021/10/13 06:56:10;;;;;;;57.87;2.60;;;7.60;99.90;;;;;;5071989;28;20502;-73
2021/10/13 06:58:37;;;;;;;58.25;2.70;;;7.60;99.90;;;;;;5071735;28;20474;-70
2021/10/13 07:01:03;;;;;;;58.20;2.63;;;7.70;99.90;;;;;;5071616;28;20208;-72
2021/10/13 07:03:30;;;;;;;58.17;2.67;;;7.70;99.90;;;;;;5078444;28;20475;-71
2021/10/13 07:05:57;;;;;;;58.10;2.67;;;7.80;99.90;;;;;;5091946;28;20460;-71
2021/10/13 07:08:25;;;;;;;58.33;2.97;;;8.00;99.90;;;;;;5091481;28;20567;-71
2021/10/13 07:10:52;;;;;;;58.20;2.63;;;8.10;99.90;;;;;;5091606;28;20479;-71
2021/10/13 07:13:19;;;;;;;58.10;2.70;;;8.30;99.90;;;;;;5092316;28;20535;-72
2021/10/13 07:15:46;;;;;;;58.13;2.73;;;8.40;99.90;;;;;;5091844;28;20489;-72
2021/10/13 07:18:13;;;;;;;58.13;2.73;;;8.50;99.90;;;;;;5091656;28;20559;-71
2021/10/13 07:20:39;;;;;;;58.87;3.93;;;8.70;99.90;;;;;;5091241;28;20452;-71
2021/10/13 07:23:06;;;;;;;58.27;2.60;;;8.80;99.90;;;;;;5091888;28;20459;-71
2021/10/13 07:25:35;;;;;;;58.17;2.80;;;8.90;99.90;;;;;;5091403;28;20552;-69
2021/10/13 07:28:02;;;;;;;58.27;2.70;;;8.90;99.90;;;;;;5091935;28;20523;-70
2021/10/13 07:30:30;;;;;;;58.23;2.70;;;8.90;99.90;;;;;;5091906;28;20450;-70
2021/10/13 07:32:58;;;;;;;58.37;2.90;;;9.00;99.90;;;;;;5091577;28;20456;-70
2021/10/13 07:35:27;;;;;;;58.27;3.00;;;9.00;99.90;;;;;;5091384;28;20481;-71
2021/10/13 07:37:55;;;;;;;59.37;3.23;;;9.20;99.90;;;;;;5091086;28;20544;-70
2021/10/13 07:40:23;;;;;;;58.37;3.10;;;9.40;99.90;;;;;;5091359;28;20926;-70
2021/10/13 07:42:52;;;;;;;58.07;2.50;;;9.50;99.90;;;;;;5091395;28;20532;-70
2021/10/13 07:45:19;;;;;;;58.17;2.77;;;9.70;99.90;;;;;;5091729;28;20445;-71
2021/10/13 07:47:47;;;;;;;57.97;2.50;;;9.80;99.90;;;;;;5091299;28;20450;-70
2021/10/13 07:50:14;;;;;;;58.27;2.60;;;9.90;99.90;;;;;;5091600;28;20508;-71
2021/10/13 07:52:41;;;;;;;58.13;2.67;;;10.00;99.90;;;;;;5091471;28;20454;-71
2021/10/13 07:55:09;;;;;;;58.50;2.77;;;10.10;99.70;;;;;;5091646;28;20922;-71
2021/10/13 07:57:35;;;;;;;58.50;2.80;;;10.00;97.00;;;;;;5091106;28;20485;-70
2021/10/13 08:00:04;;;;;;;59.10;3.53;;;9.90;92.10;;;;;;5091055;28;20484;-70
2021/10/13 08:02:31;;;;;;;58.20;2.83;;;9.90;91.60;;;;;;5091050;28;20536;-70
2021/10/13 08:04:58;;;;;;;58.13;2.70;;;9.90;90.60;;;;;;5091455;28;20946;-70
2021/10/13 08:07:25;;;;;;;58.13;2.70;;;9.90;90.90;;;;;;5091340;28;20873;-71
2021/10/13 08:09:52;;;;;;;59.63;2.80;;;9.90;90.20;;;;;;5091472;28;20554;-70
2021/10/13 08:12:19;;;;;;;58.40;2.93;;;9.90;84.30;;;;;;5091144;28;20537;-70
2021/10/13 08:14:46;;;;;;;58.57;3.33;;;9.80;83.90;;;;;;5091245;28;20573;-70
2021/10/13 08:17:14;;;;;;;58.40;2.87;;;9.70;77.00;;;;;;5090785;28;20460;-71
2021/10/13 08:19:41;;;;;;;58.20;2.77;;;9.60;68.10;;;;;;5090309;28;20573;-71
2021/10/13 08:22:08;;;;;;;58.17;2.60;;;9.50;61.30;;;;;;5091001;28;20883;-71
2021/10/13 08:24:35;;;;;;;58.10;2.63;;;9.50;37.90;;;;;;5091003;28;20462;-71
2021/10/13 08:27:03;;;;;;;58.40;2.90;;;9.60;23.70;;;;;;5091092;28;20548;-71
2021/10/13 08:29:30;;;;;;;58.17;2.60;;;9.80;35.10;;;;;;5095115;28;20556;-71
2021/10/13 08:31:57;;;;;;;58.17;2.70;;;10.10;52.20;;;;;;5094942;28;21054;-71
2021/10/13 08:34:25;;;;;;;58.80;3.00;;;10.40;46.50;;;;;;5096977;28;20445;-71
2021/10/13 08:36:52;;;;;;;58.03;2.70;;;10.50;27.90;;;;;;5093275;28;20445;-70
2021/10/13 08:39:19;;;;;;;58.67;3.60;;;10.60;31.70;;;;;;5092746;28;20472;-71
2021/10/13 08:41:46;;;;;;;58.23;2.90;;;10.60;14.50;;;;;;5103387;28;20450;-71
2021/10/13 08:44:13;;;;;;;58.07;2.70;;;10.60;13.70;;;;;;5103856;28;20449;-71
2021/10/13 08:46:40;;;;;;;57.97;2.60;;;10.70;1.00;;;;;;5100443;28;20454;-71
2021/10/13 08:49:07;;;;;;;58.60;2.80;;;10.80;1.00;;;;;;5100521;28;20501;-72
2021/10/13 08:51:36;;;;;;;58.37;3.00;;;11.00;1.00;;;;;;5102746;28;20466;-72
2021/10/13 08:54:04;;;;;;;57.97;2.70;;;11.30;2.60;;;;;;5102687;28;20533;-72
2021/10/13 08:56:31;;;;;;;58.20;2.90;;;11.40;10.20;;;;;;5102769;28;20553;-72
2021/10/13 08:58:58;;;;;;;58.20;2.90;;;11.60;2.50;;;;;;5103176;28;20488;-72
2021/10/13 09:01:25;;;;;;;58.57;3.37;;;11.70;1.00;;;;;;5104478;28;20579;-72
2021/10/13 09:03:57;;;;;;;58.17;2.70;;;11.70;1.00;;;;;;5094590;28;20960;-72
2021/10/13 09:06:26;;;;;;;57.97;2.50;;;11.60;1.00;;;;;;5094140;28;20442;-71
2021/10/13 09:08:57;;;;;;;58.37;2.90;;;11.50;1.00;;;;;;5094414;28;20469;-72
2021/10/13 09:11:39;;;;;;;58.00;2.60;;;11.50;1.00;;;;;;5094615;28;20519;-72
2021/10/13 09:14:12;;;;;;;58.03;2.60;;;11.40;1.00;;;;;;5094637;28;20541;-72
2021/10/13 09:16:57;;;;;;;58.00;2.60;;;11.40;1.00;;;;;;5093878;28;21067;-71
2021/10/13 09:19:25;;;;;;;58.13;2.50;;;11.40;1.00;;;;;;5093640;28;20939;-71
2021/10/13 09:21:54;;;;;;;58.07;2.50;;;11.50;1.00;;;;;;5093396;28;20533;-71
2021/10/13 09:24:25;;;;;;;58.20;2.90;;;11.70;1.00;;;;;;5094069;28;20488;-70
2021/10/13 09:26:52;;;;;;;58.20;2.90;;;11.80;1.00;;;;;;5093360;28;20449;-70
2021/10/13 09:29:19;;;;;;;58.13;2.70;;;11.90;1.00;;;;;;5093990;28;20997;-71
2021/10/13 09:31:54;;;;;;;57.90;2.70;;;12.10;1.00;;;;;;5094031;28;20541;-72
2021/10/13 09:34:21;;;;;;;58.03;3.03;;;12.20;1.00;;;;;;5094383;28;20446;-71
2021/10/13 09:36:54;;;;;;;58.80;3.50;;;12.30;1.00;;;;;;5093405;28;20613;-71
2021/10/13 09:39:22;;;;;;;57.83;2.70;;;12.40;1.00;;;;;;5093638;28;20470;-70
2021/10/13 09:42:00;;;;;;;58.90;3.80;;;12.50;1.00;;;;;;5093496;28;20877;-71
2021/10/13 09:44:28;;;;;;;58.03;2.93;;;12.70;1.00;;;;;;5093412;28;20450;-71
2021/10/13 09:46:58;;;;;;;58.10;2.77;;;12.80;1.00;;;;;;5093224;28;20526;-71
2021/10/13 09:49:30;;;;;;;57.93;2.90;;;13.10;1.00;;;;;;5093824;28;20467;-71
2021/10/13 09:52:06;;;;;;;58.00;2.57;;;13.30;1.00;;;;;;5093251;28;20459;-71
2021/10/13 09:54:35;;;;;;;57.87;2.60;;;13.50;1.00;;;;;;5093322;28;20538;-71
2021/10/13 09:57:14;;;;;;;58.27;3.03;;;13.50;1.00;;;;;;5093015;28;20522;-71
2021/10/13 09:59:56;;;;;;;57.97;2.37;;;13.60;1.00;;;;;;5093338;28;20863;-70
2021/10/13 10:02:25;;;;;;;57.87;2.50;;;13.60;1.00;;;;;;5079748;28;20461;-71
2021/10/13 10:04:54;;;;;;;58.03;2.60;;;13.50;1.00;;;;;;5072725;28;20455;-71
2021/10/13 10:07:21;;;;;;;58.00;3.00;;;13.40;1.00;;;;;;5071876;28;20551;-71
2021/10/13 10:10:08;;;;;;;57.93;2.43;;;13.40;1.00;;;;;;5072214;28;20500;-71
2021/10/13 10:13:00;;;;;;;57.67;2.53;;;13.50;1.00;;;;;;5073247;28;20483;-71
2021/10/13 10:15:32;;;;;;;57.87;2.40;;;13.80;1.00;;;;;;5072428;28;20882;-71
2021/10/13 10:18:00;;;;;;;58.37;3.17;;;13.70;1.00;;;;;;5072853;28;20536;-71
2021/10/13 10:20:35;;;;;;;58.07;2.57;;;13.50;1.00;;;;;;5073092;28;20553;-71
2021/10/13 10:23:03;;;;;;;57.87;2.60;;;13.30;1.00;;;;;;5072974;28;20977;-72
2021/10/13 10:25:37;;;;;;;57.83;2.60;;;13.20;1.00;;;;;;5072281;28;20453;-72
2021/10/13 10:28:04;;;;;;;57.87;2.50;;;13.20;1.00;;;;;;5072789;28;20543;-72
2021/10/13 10:30:31;;;;;;;57.87;2.37;;;13.10;1.00;;;;;;5072731;28;20539;-72
2021/10/13 10:33:21;;;;;;;57.97;2.70;;;13.00;1.00;;;;;;5072682;28;20930;-72
2021/10/13 10:35:49;;;;;;;57.90;2.40;;;12.90;1.00;;;;;;5074459;28;20535;-70
2021/10/13 10:38:19;;;;;;;58.07;2.70;;;12.80;1.00;;;;;;5092525;28;20516;-70
2021/10/13 10:40:47;;;;;;;58.00;2.57;;;12.80;1.00;;;;;;5093014;28;20451;-71
2021/10/13 10:43:25;;;;;;;58.10;2.77;;;13.00;1.00;;;;;;5092668;28;20451;-71
2021/10/13 10:45:55;;;;;;;57.87;2.60;;;13.00;1.00;;;;;;5092537;28;20857;-71
2021/10/13 10:48:23;;;;;;;57.77;2.40;;;13.20;1.00;;;;;;5092690;28;20859;-71
2021/10/13 10:51:00;;;;;;;57.77;2.40;;;13.40;1.00;;;;;;5092531;28;20447;-71
2021/10/13 10:53:32;;;;;;;57.77;2.50;;;13.90;1.00;;;;;;5092719;28;20453;-71
2021/10/13 10:56:29;;;;;;;57.67;2.60;;;14.30;1.00;;;;;;5092315;28;20582;-69
2021/10/13 10:59:23;;;;;;;58.17;2.50;;;15.00;1.00;;;;;;5092214;28;20466;-71
2021/10/13 11:02:08;;;;;;;58.17;2.50;;;16.50;1.00;;;;;;5092419;28;20608;-71
2021/10/13 11:04:35;;;;;;;57.83;2.50;;;17.30;1.00;;;;;;5092305;28;20457;-71
2021/10/13 11:07:03;;;;;;;58.17;2.43;;;18.10;1.00;;;;;;5091304;28;20536;-71
2021/10/13 11:09:30;;;;;;;57.90;2.80;;;18.20;1.00;;;;;;5091353;28;20463;-71
2021/10/13 11:11:58;;;;;;;57.70;3.17;;;18.00;1.00;;;;;;5091612;28;20530;-71
2021/10/13 11:14:25;;;;;;;58.63;3.03;;;17.80;1.00;;;;;;5092377;28;20441;-72
2021/10/13 11:16:55;;;;;;;59.13;2.60;;;17.50;1.00;;;;;;5091848;28;20575;-71
2021/10/13 11:19:23;;;;;;;58.20;2.40;;;17.50;1.00;;;;;;5092039;28;20465;-72
2021/10/13 11:21:59;;;;;;;58.10;3.00;;;18.10;1.00;;;;;;5092153;28;20638;-72
2021/10/13 11:24:26;;;;;;;58.67;3.13;;;19.30;1.00;;;;;;5091924;28;20544;-72
2021/10/13 11:26:53;;;;;;;58.20;2.50;;;19.70;1.00;;;;;;5091894;28;20446;-72
2021/10/13 11:29:24;;;;;;;58.20;2.70;;;19.50;1.00;;;;;;5091875;28;20556;-72
2021/10/13 11:32:03;;;;;;;58.10;2.50;;;19.50;1.00;;;;;;5092143;28;20453;-70
2021/10/13 11:34:30;;;;;;;57.93;2.40;;;20.20;1.00;;;;;;5092256;28;20454;-71
2021/10/13 11:36:58;;;;;;;57.97;2.80;;;20.70;1.00;;;;;;5091395;28;20474;-71
2021/10/13 11:39:27;;;;;;;58.27;2.73;;;20.20;1.00;;;;;;5092218;28;20566;-71
2021/10/13 11:41:56;;;;;;;58.17;3.10;;;19.10;1.00;;;;;;5091999;28;20481;-71
2021/10/13 11:44:26;;;;;;;58.57;2.90;;;18.10;1.00;;;;;;5091919;28;20961;-71
2021/10/13 11:47:01;;;;;;;58.13;2.57;;;17.20;1.00;;;;;;5091429;28;20455;-71
2021/10/13 11:49:29;;;;;;;58.97;2.73;;;16.20;1.00;;;;;;5091784;28;20462;-71
2021/10/13 11:52:13;;;;;;;58.60;3.27;;;15.50;1.00;;;;;;5091995;28;21014;-71
2021/10/13 11:54:42;;;;;;;58.10;2.50;;;15.00;1.00;;;;;;5091949;28;20529;-71
2021/10/13 11:57:09;;;;;;;58.20;2.60;;;14.90;1.00;;;;;;5091490;28;20484;-72
2021/10/13 11:59:38;;;;;;;58.20;3.00;;;15.50;1.00;;;;;;5091683;28;20498;-71
2021/10/13 12:02:12;;;;;;;58.47;2.60;;;16.20;1.00;;;;;;5083700;28;20466;-70
2021/10/13 12:04:46;;;;;;;57.77;2.57;;;16.50;1.00;;;;;;5091586;28;20947;-71
2021/10/13 12:07:21;;;;;;;57.97;2.43;;;17.40;1.00;;;;;;5089917;28;20487;-71
2021/10/13 12:09:56;;;;;;;57.70;2.33;;;19.00;1.00;;;;;;5091745;28;20521;-72
2021/10/13 12:12:22;;;;;;;58.17;2.50;;;19.80;1.00;;;;;;5090917;28;20550;-71
2021/10/13 12:14:51;;;;;;;58.03;2.90;;;20.40;1.00;;;;;;5091641;28;20477;-71
2021/10/13 12:17:29;;;;;;;57.57;2.40;;;21.10;1.00;;;;;;5091247;28;20573;-72
2021/10/13 12:19:56;;;;;;;57.57;2.20;;;21.90;1.00;;;;;;5091633;28;20478;-72
2021/10/13 12:22:23;;;;;;;57.97;2.33;;;22.40;1.00;;;;;;5090991;28;20543;-71
2021/10/13 12:24:50;;;;;;;58.47;2.90;;;21.80;1.00;;;;;;5093079;28;20490;-72
2021/10/13 12:27:28;;;;;;;58.07;2.30;;;20.30;1.00;;;;;;5095263;28;20446;-74
2021/10/13 12:29:58;;;;;;;57.83;2.10;;;18.80;1.00;;;;;;5095553;28;20560;-74
2021/10/13 12:32:27;;;;;;;57.97;2.80;;;17.50;1.00;;;;;;5095123;28;20532;-74
2021/10/13 12:34:55;;;;;;;57.93;2.50;;;16.40;1.00;;;;;;5095200;28;20537;-73
2021/10/13 12:37:26;;;;;;;58.27;2.57;;;15.40;1.00;;;;;;5092608;28;20513;-73
2021/10/13 12:39:53;;;;;;;58.07;2.40;;;14.60;1.00;;;;;;5095350;28;20502;-72
2021/10/13 12:42:26;;;;;;;57.87;2.50;;;14.00;1.00;;;;;;5094700;28;20562;-73
2021/10/13 12:45:01;;;;;;;58.17;2.40;;;13.60;1.00;;;;;;5094991;28;20945;-73
2021/10/13 12:47:28;;;;;;;57.87;2.70;;;13.60;1.00;;;;;;5094788;28;20445;-73
2021/10/13 12:49:57;;;;;;;58.00;2.30;;;15.10;1.00;;;;;;5094706;28;20466;-73
2021/10/13 12:52:30;;;;;;;58.17;2.50;;;17.50;1.00;;;;;;5094965;28;20491;-72
2021/10/13 12:54:58;;;;;;;58.30;2.63;;;20.00;1.00;;;;;;5095229;28;20590;-73